createdAt,value
2023-05-25T00:02:24.755Z,100042.41
2023-05-25T00:04:52.190Z,100045.13
2023-05-25T00:07:19.126Z,100042.66
2023-05-25T00:09:46.649Z,100046.87
2023-05-25T00:12:14.378Z,100046.69
2023-05-25T00:14:41.004Z,100033.84
2023-05-25T00:17:10.216Z,100048.56
2023-05-25T00:19:38.094Z,100043.53
2023-05-25T00:22:05.121Z,100034.16
2023-05-25T00:24:31.944Z,100044.37
2023-05-25T00:26:58.901Z,100041.13
2023-05-25T00:29:26.186Z,100038.22
2023-05-25T00:31:53.749Z,100041.00
2023-05-25T00:34:20.890Z,100043.41
2023-05-25T00:36:50.628Z,100037.94
2023-05-25T00:39:19.282Z,100040.53
2023-05-25T00:41:46.899Z,100039.84
2023-05-25T00:44:14.962Z,100049.44
2023-05-25T00:46:52.597Z,100054.09
2023-05-25T00:49:23.092Z,100054.31
2023-05-25T00:51:52.411Z,100052.81
2023-05-25T00:54:19.647Z,100052.34
2023-05-25T00:57:14.681Z,100053.31
2023-05-25T00:59:48.433Z,100058.91
2023-05-25T01:02:19.240Z,100057.56
2023-05-25T01:04:52.733Z,100048.31
2023-05-25T01:07:23.492Z,100046.78
2023-05-25T01:10:06.991Z,100058.38
2023-05-25T01:12:45.937Z,100065.06
2023-05-25T01:15:12.697Z,100071.59
2023-05-25T01:17:39.548Z,100053.59
2023-05-25T01:20:11.386Z,100061.81
2023-05-25T01:22:54.205Z,100064.37
2023-05-25T01:25:27.663Z,100071.00
2023-05-25T01:27:54.194Z,100067.94
2023-05-25T01:30:25.334Z,100065.66
2023-05-25T01:32:54.103Z,100069.59
2023-05-25T01:35:22.065Z,100071.34
2023-05-25T01:37:49.979Z,100078.44
2023-05-25T01:40:16.665Z,100082.69
2023-05-25T01:42:43.630Z,100083.97
2023-05-25T01:45:12.746Z,100083.50
2023-05-25T01:48:03.538Z,100083.84
2023-05-25T01:50:30.145Z,100089.25
2023-05-25T01:53:04.819Z,100086.41
2023-05-25T01:55:36.892Z,100083.72
2023-05-25T01:58:06.099Z,100077.03
2023-05-25T02:00:33.354Z,100089.50
2023-05-25T02:03:01.506Z,100080.63
2023-05-25T02:05:28.306Z,100077.97
2023-05-25T02:07:54.987Z,100078.78
2023-05-25T02:10:21.652Z,100084.81
2023-05-25T02:12:48.220Z,100081.69
2023-05-25T02:15:16.143Z,100083.78
2023-05-25T02:17:43.343Z,100076.84
2023-05-25T02:20:11.759Z,100076.72
2023-05-25T02:22:38.402Z,100087.53
2023-05-25T02:25:05.810Z,100088.03
2023-05-25T02:27:32.461Z,100090.34
2023-05-25T02:29:59.015Z,100088.63
2023-05-25T02:32:25.624Z,100087.09
2023-05-25T02:34:52.285Z,100090.50
2023-05-25T02:37:18.874Z,100089.56
2023-05-25T02:39:45.412Z,100096.56
2023-05-25T02:42:12.288Z,100099.72
2023-05-25T02:44:38.831Z,100094.72
2023-05-25T02:47:06.845Z,100099.09
2023-05-25T02:49:34.445Z,100094.37
2023-05-25T02:52:01.064Z,100099.78
2023-05-25T02:54:27.639Z,100102.25
2023-05-25T02:56:54.238Z,100100.97
2023-05-25T02:59:21.609Z,100106.69
2023-05-25T03:01:48.253Z,100114.03
2023-05-25T03:04:14.932Z,100113.88
2023-05-25T03:06:41.747Z,100112.09
2023-05-25T03:09:09.687Z,100117.28
2023-05-25T03:11:36.337Z,100115.81
2023-05-25T03:14:03.011Z,100112.44
2023-05-25T03:16:29.614Z,100112.13
2023-05-25T03:18:56.226Z,100123.81
2023-05-25T03:21:23.715Z,100113.75
2023-05-25T03:23:50.278Z,100118.66
2023-05-25T03:26:17.601Z,100115.69
2023-05-25T03:28:44.312Z,100126.28
2023-05-25T03:31:12.189Z,100122.56
2023-05-25T03:33:38.802Z,100119.78
2023-05-25T03:36:09.387Z,100124.16
2023-05-25T03:38:38.818Z,100123.66
2023-05-25T03:41:05.623Z,100127.84
2023-05-25T03:43:32.284Z,100125.22
2023-05-25T03:45:58.929Z,100130.91
2023-05-25T03:48:25.874Z,100127.63
2023-05-25T03:50:52.696Z,100130.16
2023-05-25T03:53:19.306Z,100129.84
2023-05-25T03:55:46.071Z,100128.50
2023-05-25T03:58:13.375Z,100131.56
2023-05-25T04:00:39.959Z,100139.53
2023-05-25T04:03:07.037Z,100144.38
2023-05-25T04:05:33.789Z,100148.78
2023-05-25T04:08:00.362Z,100142.25
2023-05-25T04:10:26.976Z,100147.94
2023-05-25T04:12:56.658Z,100143.81
2023-05-25T04:15:26.630Z,100150.09
2023-05-25T04:17:53.360Z,100146.53
2023-05-25T04:20:20.052Z,100158.94
2023-05-25T04:22:47.663Z,100162.53
2023-05-25T04:25:14.429Z,100166.59
2023-05-25T04:27:42.275Z,100170.31
2023-05-25T04:30:11.121Z,100166.88
2023-05-25T04:32:38.578Z,100174.19
2023-05-25T04:35:05.695Z,100176.31
2023-05-25T04:37:33.365Z,100172.72
2023-05-25T04:40:00.120Z,100175.34
2023-05-25T04:42:26.969Z,100171.78
2023-05-25T04:44:55.690Z,100166.31
2023-05-25T04:47:24.954Z,100166.25
2023-05-25T04:49:51.997Z,100175.84
2023-05-25T04:52:18.663Z,100156.91
2023-05-25T04:54:46.899Z,100167.47
2023-05-25T04:57:13.576Z,100166.56
2023-05-25T04:59:40.231Z,100159.88
2023-05-25T05:02:06.857Z,100170.41
2023-05-25T05:04:33.456Z,100164.34
2023-05-25T05:07:00.145Z,100170.13
2023-05-25T05:09:26.731Z,100170.94
2023-05-25T05:11:53.338Z,100169.44
2023-05-25T05:14:19.893Z,100173.41
2023-05-25T05:16:48.148Z,100178.41
2023-05-25T05:19:14.893Z,100182.75
2023-05-25T05:21:41.497Z,100183.13
2023-05-25T05:24:08.094Z,100189.84
2023-05-25T05:26:48.258Z,100177.03
2023-05-25T05:29:21.482Z,100183.41
2023-05-25T05:31:48.259Z,100174.62
2023-05-25T05:34:14.879Z,100178.44
2023-05-25T05:36:56.034Z,100194.62
2023-05-25T05:39:24.256Z,100179.63
2023-05-25T05:41:50.844Z,100191.19
2023-05-25T05:44:17.433Z,100189.25
2023-05-25T05:46:44.215Z,100187.06
2023-05-25T05:49:10.847Z,100178.72
2023-05-25T05:51:37.400Z,100185.78
2023-05-25T05:54:04.564Z,100190.88
2023-05-25T05:56:31.398Z,100184.84
2023-05-25T05:58:58.107Z,100195.12
2023-05-25T06:01:25.448Z,100190.13
2023-05-25T06:03:54.341Z,100195.97
2023-05-25T06:06:21.716Z,100204.59
2023-05-25T06:08:48.629Z,100199.16
2023-05-25T06:11:15.380Z,100200.81
2023-05-25T06:13:42.029Z,100203.88
2023-05-25T06:16:08.661Z,100212.56
2023-05-25T06:18:35.320Z,100215.66
2023-05-25T06:21:02.502Z,100203.13
2023-05-25T06:23:29.055Z,100206.16
2023-05-25T06:25:55.721Z,100211.03
2023-05-25T06:28:22.292Z,100199.63
2023-05-25T06:30:49.212Z,100197.28
2023-05-25T06:33:16.236Z,100198.88
2023-05-25T06:35:43.158Z,100198.88
2023-05-25T06:38:11.530Z,100206.63
2023-05-25T06:40:38.277Z,100195.41
2023-05-25T06:43:04.877Z,100193.59
2023-05-25T06:45:31.501Z,100205.47
2023-05-25T06:47:58.139Z,100204.91
2023-05-25T06:50:24.872Z,100217.50
2023-05-25T06:52:51.592Z,100218.44
2023-05-25T06:55:18.189Z,100216.72
2023-05-25T06:57:44.824Z,100215.38
2023-05-25T07:00:12.400Z,100214.78
2023-05-25T07:02:39.556Z,100212.12
2023-05-25T07:05:06.785Z,100216.06
2023-05-25T07:07:33.764Z,100215.59
2023-05-25T07:10:01.707Z,100221.06
2023-05-25T07:12:28.317Z,100221.69
2023-05-25T07:14:54.977Z,100226.94
2023-05-25T07:17:22.331Z,100222.19
2023-05-25T07:19:50.079Z,100226.22
2023-05-25T07:22:19.006Z,100222.75
2023-05-25T07:24:46.916Z,100230.13
2023-05-25T07:27:14.335Z,100226.34
2023-05-25T07:29:41.252Z,100225.31
2023-05-25T07:32:07.948Z,100223.50
2023-05-25T07:34:35.262Z,100217.47
2023-05-25T07:37:01.896Z,100227.75
2023-05-25T07:39:28.679Z,100226.75
2023-05-25T07:41:55.359Z,100216.16
2023-05-25T07:44:21.926Z,100220.88
2023-05-25T07:46:48.540Z,100229.91
2023-05-25T07:49:17.644Z,100230.44
2023-05-25T07:51:47.539Z,100232.31
2023-05-25T07:54:14.157Z,100234.81
2023-05-25T07:56:40.944Z,100234.56
2023-05-25T07:59:07.581Z,100232.28
2023-05-25T08:01:34.191Z,100227.09
2023-05-25T08:04:01.319Z,100222.78
2023-05-25T08:06:28.046Z,100231.78
2023-05-25T08:08:54.607Z,100229.31
2023-05-25T08:11:27.690Z,100234.44
2023-05-25T08:13:54.353Z,100229.25
2023-05-25T08:16:21.260Z,100232.84
2023-05-25T08:18:47.977Z,100230.31
2023-05-25T08:21:14.582Z,100243.78
2023-05-25T08:23:42.423Z,100233.72
2023-05-25T08:26:26.092Z,100236.78
2023-05-25T08:28:57.024Z,100239.66
2023-05-25T08:31:23.655Z,100238.28
2023-05-25T08:33:50.258Z,100244.63
2023-05-25T08:36:16.815Z,100243.34
2023-05-25T08:38:43.352Z,100237.63
2023-05-25T08:41:12.847Z,100238.41
2023-05-25T08:43:41.574Z,100242.66
2023-05-25T08:46:09.189Z,100238.75
2023-05-25T08:48:41.731Z,100234.69
2023-05-25T08:51:11.944Z,100238.25
2023-05-25T08:53:43.907Z,100240.94
2023-05-25T08:56:16.092Z,100234.03
2023-05-25T08:58:53.042Z,100238.59
2023-05-25T09:01:22.584Z,100241.00
2023-05-25T09:03:50.330Z,100239.19
2023-05-25T09:06:17.695Z,100242.44
2023-05-25T09:08:45.116Z,100243.00
2023-05-25T09:11:16.573Z,100238.31
2023-05-25T09:13:44.393Z,100238.06
2023-05-25T09:16:11.592Z,100232.44
2023-05-25T09:18:38.611Z,100239.66
2023-05-25T09:21:05.364Z,100238.44
2023-05-25T09:23:32.339Z,100242.31
2023-05-25T09:26:01.199Z,100238.25
2023-05-25T09:28:27.983Z,100240.91
2023-05-25T09:30:56.096Z,100237.09
2023-05-25T09:33:22.905Z,100241.22
2023-05-25T09:35:49.840Z,100233.66
2023-05-25T09:38:17.146Z,100240.25
2023-05-25T09:40:44.827Z,100231.50
2023-05-25T09:43:17.285Z,100234.06
2023-05-25T09:45:49.028Z,100238.16
2023-05-25T09:48:15.915Z,100236.72
2023-05-25T09:50:43.381Z,100243.13
2023-05-25T09:53:11.237Z,100243.22
2023-05-25T09:55:51.968Z,100248.88
2023-05-25T09:58:24.143Z,100241.56
2023-05-25T10:00:55.530Z,100248.34
2023-05-25T10:03:22.720Z,100243.53
2023-05-25T10:05:49.892Z,100243.28
2023-05-25T10:08:20.221Z,100241.78
2023-05-25T10:10:50.023Z,100244.25
2023-05-25T10:13:22.881Z,100252.56
2023-05-25T10:15:54.182Z,100242.75
2023-05-25T10:18:26.444Z,100231.75
2023-05-25T10:21:04.757Z,100232.28
2023-05-25T10:23:41.747Z,100230.47
2023-05-25T10:26:09.952Z,100225.56
2023-05-25T10:28:38.019Z,100231.41
2023-05-25T10:31:05.862Z,100229.75
2023-05-25T10:33:33.634Z,100228.06
2023-05-25T10:36:10.157Z,100223.97
2023-05-25T10:38:40.126Z,100230.97
2023-05-25T10:41:09.989Z,100220.94
2023-05-25T10:43:38.139Z,100225.69
2023-05-25T10:46:06.321Z,100225.38
2023-05-25T10:48:40.000Z,100221.28
2023-05-25T10:51:08.319Z,100216.03
2023-05-25T10:53:35.900Z,100220.84
2023-05-25T10:56:04.592Z,100216.84
2023-05-25T10:58:32.422Z,100211.34
2023-05-25T11:01:13.618Z,100215.12
2023-05-25T11:04:18.735Z,100212.75
2023-05-25T11:06:48.245Z,100216.47
2023-05-25T11:09:28.254Z,100209.97
2023-05-25T11:12:03.461Z,100198.47
2023-05-25T11:14:31.705Z,100196.44
2023-05-25T11:17:11.924Z,100197.94
2023-05-25T11:19:51.389Z,100194.91
2023-05-25T11:22:21.248Z,100193.88
2023-05-25T11:24:49.390Z,100194.41
2023-05-25T11:27:21.833Z,100185.78
2023-05-25T11:29:51.740Z,100192.28
2023-05-25T11:32:18.603Z,100189.31
2023-05-25T11:34:47.087Z,100193.13
2023-05-25T11:37:21.150Z,100188.81
2023-05-25T11:39:52.102Z,100187.47
2023-05-25T11:42:24.345Z,100182.75
2023-05-25T11:44:51.338Z,100193.91
2023-05-25T11:47:23.004Z,100184.41
2023-05-25T11:49:50.048Z,100176.34
2023-05-25T11:52:18.171Z,100167.22
2023-05-25T11:54:45.885Z,100164.25
2023-05-25T11:57:16.930Z,100162.22
2023-05-25T11:59:49.954Z,100154.41
2023-05-25T12:02:17.143Z,100158.00
2023-05-25T12:05:02.309Z,100157.94
2023-05-25T12:07:30.625Z,100165.13
2023-05-25T12:10:10.365Z,100149.94
2023-05-25T12:12:51.746Z,100147.22
2023-05-25T12:15:33.955Z,100150.06
2023-05-25T12:18:01.133Z,100147.00
2023-05-25T12:20:27.945Z,100145.78
2023-05-25T12:22:54.660Z,100141.09
2023-05-25T12:25:46.609Z,100142.50
2023-05-25T14:00:24.368Z,100062.59
2023-05-25T14:02:51.130Z,100060.69
2023-05-25T14:05:19.770Z,100053.16
2023-05-25T14:07:47.218Z,100049.97
2023-05-25T14:10:14.009Z,100049.50
2023-05-25T14:12:41.042Z,100055.88
2023-05-25T14:15:38.718Z,100056.59
2023-05-25T14:18:42.449Z,100059.75
2023-05-25T14:21:11.079Z,100050.50
2023-05-25T14:23:37.633Z,100045.62
2023-05-25T14:26:04.591Z,100042.97
2023-05-25T14:28:31.222Z,100044.19
2023-05-25T14:30:57.878Z,100045.00
2023-05-25T14:33:24.467Z,100036.25
2023-05-25T14:35:51.086Z,100036.25
2023-05-25T14:38:17.649Z,100035.50
2023-05-25T14:41:00.140Z,100029.53
2023-05-25T14:43:26.778Z,100036.72
2023-05-25T14:45:53.308Z,100032.72
2023-05-25T14:48:23.354Z,100042.34
2023-05-25T14:50:50.009Z,100031.94
2023-05-25T14:53:16.770Z,100030.78
2023-05-25T14:55:43.817Z,100030.72
2023-05-25T14:58:11.263Z,100024.00
2023-05-25T15:00:37.896Z,100025.19
2023-05-25T15:03:04.738Z,100018.41
2023-05-25T15:05:31.389Z,100023.97
2023-05-25T15:07:58.970Z,100023.53
2023-05-25T15:10:25.655Z,100025.47
2023-05-25T15:12:52.287Z,100025.00
2023-05-25T15:15:18.835Z,100026.53
2023-05-25T15:17:45.458Z,100022.59
2023-05-25T15:20:12.042Z,100022.94
2023-05-25T15:22:38.629Z,100025.00
2023-05-25T15:25:05.437Z,100025.84
2023-05-25T15:27:32.288Z,100019.31
2023-05-25T15:29:58.956Z,100018.78
2023-05-25T15:32:25.974Z,100021.97
2023-05-25T15:34:52.627Z,100025.47
2023-05-25T15:37:19.269Z,100020.00
2023-05-25T15:39:45.828Z,100022.16
2023-05-25T15:42:12.557Z,100018.53
2023-05-25T15:44:39.110Z,100021.97
2023-05-25T15:47:06.614Z,100025.50
2023-05-25T15:49:36.695Z,100024.72
2023-05-25T15:52:03.448Z,100016.78
2023-05-25T15:54:30.026Z,100016.81
2023-05-25T15:56:56.592Z,100014.81
2023-05-25T15:59:23.151Z,100011.13
2023-05-25T16:01:49.847Z,100015.09
2023-05-25T16:04:16.633Z,100020.72
2023-05-25T16:06:43.312Z,100017.44
2023-05-25T16:09:09.865Z,100015.47
2023-05-25T16:11:36.556Z,100019.72
2023-05-25T16:14:03.170Z,100027.19
2023-05-25T16:16:29.874Z,100021.06
2023-05-25T16:18:56.497Z,100018.66
2023-05-25T16:21:23.172Z,100019.25
2023-05-25T16:23:49.913Z,100013.41
2023-05-25T16:26:16.600Z,100018.16
2023-05-25T16:28:43.186Z,100008.59
2023-05-25T16:31:11.089Z,100011.69
2023-05-25T16:33:39.119Z,100014.50
2023-05-25T16:36:06.064Z,100017.31
2023-05-25T16:38:32.649Z,100019.00
2023-05-25T16:40:59.206Z,100017.03
2023-05-25T16:43:26.801Z,100023.19
2023-05-25T16:45:53.437Z,100025.69
2023-05-25T16:48:22.426Z,100025.56
2023-05-25T16:50:49.773Z,100033.69
2023-05-25T16:53:16.306Z,100023.72
2023-05-25T16:55:43.655Z,100017.66
2023-05-25T16:58:10.454Z,100026.81
2023-05-25T17:00:37.054Z,100027.69
2023-05-25T17:03:03.751Z,100035.19
2023-05-25T17:05:30.630Z,100018.31
2023-05-25T17:07:57.224Z,100026.31
2023-05-25T17:10:23.842Z,100034.41
2023-05-25T17:12:50.597Z,100022.59
2023-05-25T17:15:17.304Z,100019.03
2023-05-25T17:17:44.164Z,100023.28
2023-05-25T17:20:11.641Z,100026.06
2023-05-25T17:22:38.579Z,100030.84
2023-05-25T17:25:06.326Z,100036.56
2023-05-25T17:27:32.921Z,100026.97
2023-05-25T17:29:59.514Z,100030.06
2023-05-25T17:32:26.334Z,100024.03
2023-05-25T17:34:53.074Z,100037.72
2023-05-25T17:37:21.123Z,100036.41
2023-05-25T17:39:47.884Z,100033.91
2023-05-25T17:42:14.538Z,100027.19
2023-05-25T17:44:42.418Z,100030.59
2023-05-25T17:47:10.977Z,100030.72
2023-05-25T17:49:38.082Z,100023.81
2023-05-25T17:52:04.981Z,100025.66
2023-05-25T17:54:31.526Z,100023.59
2023-05-25T17:56:58.131Z,100029.66
2023-05-25T17:59:24.695Z,100030.03
2023-05-25T18:01:51.864Z,100024.94
2023-05-25T18:04:19.714Z,100022.63
2023-05-25T18:06:47.349Z,100029.81
2023-05-25T18:09:14.060Z,100028.34
2023-05-25T18:11:43.001Z,100031.13
2023-05-25T18:14:09.560Z,100028.44
2023-05-25T18:16:44.509Z,100030.09
2023-05-25T18:19:11.347Z,100035.66
2023-05-25T18:21:38.548Z,100041.06
2023-05-25T18:24:07.395Z,100042.88
2023-05-25T18:26:34.070Z,100038.03
2023-05-25T18:29:00.766Z,100044.41
2023-05-25T18:31:30.637Z,100051.25
2023-05-25T18:33:57.285Z,100044.06
2023-05-25T18:36:23.966Z,100052.16
2023-05-25T18:38:50.546Z,100057.75
2023-05-25T18:41:19.166Z,100054.00
2023-05-25T18:43:49.989Z,100055.69
2023-05-25T18:46:16.920Z,100056.88
2023-05-25T18:48:43.619Z,100060.84
2023-05-25T18:51:10.493Z,100074.87
2023-05-25T18:53:37.161Z,100068.41
2023-05-25T18:56:03.735Z,100074.50
2023-05-25T18:58:35.499Z,100073.53
2023-05-25T19:01:02.133Z,100085.00
2023-05-25T19:03:28.797Z,100082.75
2023-05-25T19:05:55.468Z,100087.28
2023-05-25T19:08:23.506Z,100096.59
2023-05-25T19:10:51.030Z,100095.00
2023-05-25T19:13:17.654Z,100096.81
2023-05-25T19:15:44.558Z,100099.78
2023-05-25T19:18:11.524Z,100098.25
2023-05-25T19:20:38.376Z,100092.78
2023-05-25T19:23:04.977Z,100094.50
2023-05-25T19:25:31.635Z,100094.97
2023-05-25T19:27:59.635Z,100092.47
2023-05-25T19:30:26.269Z,100099.03
2023-05-25T19:32:52.876Z,100095.97
2023-05-25T19:35:19.561Z,100097.41
2023-05-25T19:37:46.312Z,100089.94
2023-05-25T19:40:13.574Z,100095.25
2023-05-25T19:42:40.193Z,100098.41
2023-05-25T19:45:07.101Z,100098.50
2023-05-25T19:47:33.855Z,100098.00
2023-05-25T19:50:02.150Z,100102.31
2023-05-25T19:52:28.744Z,100106.44
2023-05-25T19:54:57.181Z,100099.72
2023-05-25T19:57:23.876Z,100098.91
2023-05-25T19:59:51.113Z,100091.34
2023-05-25T20:02:17.704Z,100100.16
2023-05-25T20:04:47.280Z,100097.38
2023-05-25T20:07:14.194Z,100096.84
2023-05-25T20:09:41.439Z,100108.06
2023-05-25T20:12:09.441Z,100104.19
2023-05-25T20:14:36.013Z,100100.94
2023-05-25T20:17:02.745Z,100103.09
2023-05-25T20:19:29.767Z,100103.00
2023-05-25T20:22:11.448Z,100102.91
2023-05-25T20:24:38.114Z,100109.09
2023-05-25T20:27:06.075Z,100109.84
2023-05-25T20:29:33.654Z,100104.19
2023-05-25T20:32:00.739Z,100110.19
2023-05-25T20:34:27.372Z,100102.53
2023-05-25T20:36:53.974Z,100107.09
2023-05-25T20:39:20.581Z,100103.62
2023-05-25T20:41:47.155Z,100105.22
2023-05-25T20:44:14.122Z,100110.63
2023-05-25T20:46:40.838Z,100109.34
2023-05-25T20:49:07.450Z,100107.38
2023-05-25T20:51:33.975Z,100107.84
2023-05-25T20:54:00.833Z,100102.09
2023-05-25T20:56:27.710Z,100101.06
2023-05-25T20:58:54.376Z,100098.84
2023-05-25T21:01:20.955Z,100105.19
2023-05-25T21:03:47.824Z,100109.06
2023-05-25T21:06:14.537Z,100108.25
2023-05-25T21:08:41.145Z,100105.09
2023-05-25T21:11:07.736Z,100109.53
2023-05-25T21:13:34.336Z,100102.00
2023-05-25T21:16:01.247Z,100111.50
2023-05-25T21:18:27.817Z,100109.66
2023-05-25T21:20:54.745Z,100108.28
2023-05-25T21:23:21.361Z,100107.59
2023-05-25T21:25:48.168Z,100119.91
2023-05-25T21:28:15.150Z,100116.09
2023-05-25T21:30:41.707Z,100115.34
2023-05-25T21:33:08.500Z,100121.72
2023-05-25T21:35:35.211Z,100118.97
2023-05-25T21:38:01.802Z,100120.00
2023-05-25T21:40:28.663Z,100123.03
2023-05-25T21:42:55.323Z,100124.59
2023-05-25T21:45:21.886Z,100131.09
2023-05-25T21:47:48.626Z,100132.81
2023-05-25T21:50:15.419Z,100124.47
2023-05-25T21:52:42.174Z,100129.59
2023-05-25T21:55:09.168Z,100131.22
2023-05-25T21:57:36.303Z,100133.75
2023-05-25T22:00:03.789Z,100130.84
2023-05-25T22:02:30.604Z,100126.38
2023-05-25T22:04:57.331Z,100125.44
2023-05-25T22:07:23.941Z,100134.06
2023-05-25T22:09:50.649Z,100132.44
2023-05-25T22:12:17.257Z,100139.16
2023-05-25T22:14:43.808Z,100140.56
2023-05-25T22:17:10.509Z,100142.53
2023-05-25T22:19:37.148Z,100130.16
2023-05-25T22:22:03.864Z,100133.62
2023-05-25T22:24:30.521Z,100133.28
2023-05-25T22:26:57.061Z,100131.34
2023-05-25T22:29:23.663Z,100131.34
2023-05-25T22:31:50.734Z,100135.53
2023-05-25T22:34:17.402Z,100137.84
2023-05-25T22:36:44.009Z,100128.25
2023-05-25T22:39:10.746Z,100133.00
2023-05-25T22:41:37.360Z,100130.09
2023-05-25T22:44:03.987Z,100132.09
2023-05-25T22:46:30.683Z,100129.06
2023-05-25T22:48:57.294Z,100127.00
2023-05-25T22:51:23.859Z,100124.91
2023-05-25T22:53:50.446Z,100136.25
2023-05-25T22:56:17.059Z,100127.12
2023-05-25T22:58:43.668Z,100124.91
2023-05-25T23:01:10.365Z,100126.41
2023-05-25T23:03:37.071Z,100123.97
2023-05-25T23:06:03.776Z,100123.75
2023-05-25T23:08:30.538Z,100120.41
2023-05-25T23:10:57.120Z,100127.56
2023-05-25T23:13:24.281Z,100127.44
2023-05-25T23:15:51.019Z,100121.78
2023-05-25T23:18:17.674Z,100123.28
2023-05-25T23:20:44.965Z,100120.84
2023-05-25T23:23:11.951Z,100120.97
2023-05-25T23:25:38.556Z,100120.03
2023-05-25T23:28:05.161Z,100114.03
2023-05-25T23:30:31.734Z,100119.00
2023-05-25T23:32:58.388Z,100109.06
2023-05-25T23:35:25.085Z,100115.06
2023-05-25T23:37:52.152Z,100111.47
2023-05-25T23:40:18.980Z,100112.84
2023-05-25T23:42:45.934Z,100115.75
2023-05-25T23:45:13.633Z,100117.34
2023-05-25T23:47:40.753Z,100111.59
2023-05-25T23:50:07.513Z,100113.53
2023-05-25T23:52:34.165Z,100111.13
2023-05-25T23:55:00.740Z,100117.03
2023-05-25T23:57:27.335Z,100115.72
2023-05-25T23:59:53.899Z,100113.62
